sensor_id;sensor_type;location;lat;lon;timestamp;temperature;humidity
15937;DHT22;9163;48.818;8.976;2023-03-14T00:02:07;8.80;99.90
15937;DHT22;9163;48.818;8.976;2023-03-14T00:04:35;8.80;99.90
15937;DHT22;9163;48.818;8.976;2023-03-14T00:07:04;8.80;99.90
15937;DHT22;9163;48.818;8.976;2023-03-14T00:09:31;8.80;99.90
15937;DHT22;9163;48.818;8.976;2023-03-14T00:11:58;8.80;99.90
15937;DHT22;9163;48.818;8.976;2023-03-14T00:14:26;8.80;99.90
15937;DHT22;9163;48.818;8.976;2023-03-14T00:16:53;8.70;99.90
15937;DHT22;9163;48.818;8.976;2023-03-14T00:19:20;8.70;99.90
15937;DHT22;9163;48.818;8.976;2023-03-14T00:21:47;8.70;99.90
15937;DHT22;9163;48.818;8.976;2023-03-14T00:24:16;8.70;99.90
15937;DHT22;9163;48.818;8.976;2023-03-14T00:26:43;8.70;99.90
15937;DHT22;9163;48.818;8.976;2023-03-14T00:29:10;8.70;99.90
15937;DHT22;9163;48.818;8.976;2023-03-14T00:31:38;8.70;99.90
15937;DHT22;9163;48.818;8.976;2023-03-14T00:34:05;8.70;99.90
15937;DHT22;9163;48.818;8.976;2023-03-14T00:36:32;8.60;99.90
15937;DHT22;9163;48.818;8.976;2023-03-14T00:38:59;8.60;99.90
15937;DHT22;9163;48.818;8.976;2023-03-14T00:41:28;8.60;99.90
15937;DHT22;9163;48.818;8.976;2023-03-14T00:43:55;8.60;99.90
15937;DHT22;9163;48.818;8.976;2023-03-14T00:46:22;8.60;99.90
15937;DHT22;9163;48.818;8.976;2023-03-14T00:48:50;8.60;99.90
15937;DHT22;9163;48.818;8.976;2023-03-14T00:51:20;8.60;99.90
15937;DHT22;9163;48.818;8.976;2023-03-14T00:53:47;8.60;99.90
15937;DHT22;9163;48.818;8.976;2023-03-14T00:56:14;8.70;99.90
15937;DHT22;9163;48.818;8.976;2023-03-14T00:58:43;8.70;99.90
15937;DHT22;9163;48.818;8.976;2023-03-14T01:01:12;8.70;99.90
15937;DHT22;9163;48.818;8.976;2023-03-14T01:03:40;8.70;99.90
15937;DHT22;9163;48.818;8.976;2023-03-14T01:06:09;8.70;99.90
15937;DHT22;9163;48.818;8.976;2023-03-14T01:08:37;8.70;99.90
15937;DHT22;9163;48.818;8.976;2023-03-14T01:11:08;8.80;99.90
15937;DHT22;9163;48.818;8.976;2023-03-14T01:13:36;8.80;99.90
15937;DHT22;9163;48.818;8.976;2023-03-14T01:16:06;8.80;99.90
15937;DHT22;9163;48.818;8.976;2023-03-14T01:18:34;8.80;99.90
15937;DHT22;9163;48.818;8.976;2023-03-14T01:21:02;8.80;99.90
15937;DHT22;9163;48.818;8.976;2023-03-14T01:23:29;8.80;99.90
15937;DHT22;9163;48.818;8.976;2023-03-14T01:25:56;8.80;99.90
15937;DHT22;9163;48.818;8.976;2023-03-14T01:28:24;8.80;99.90
15937;DHT22;9163;48.818;8.976;2023-03-14T01:30:51;8.80;99.90
15937;DHT22;9163;48.818;8.976;2023-03-14T01:33:20;8.80;99.90
15937;DHT22;9163;48.818;8.976;2023-03-14T01:35:49;8.80;99.90
15937;DHT22;9163;48.818;8.976;2023-03-14T01:38:17;8.80;99.90
15937;DHT22;9163;48.818;8.976;2023-03-14T01:40:44;8.80;99.90
15937;DHT22;9163;48.818;8.976;2023-03-14T01:43:16;8.80;99.90
15937;DHT22;9163;48.818;8.976;2023-03-14T01:49:09;8.80;99.90
15937;DHT22;9163;48.818;8.976;2023-03-14T01:51:42;8.80;99.90
15937;DHT22;9163;48.818;8.976;2023-03-14T01:54:15;8.80;99.90
15937;DHT22;9163;48.818;8.976;2023-03-14T01:56:48;8.80;99.90
15937;DHT22;9163;48.818;8.976;2023-03-14T01:59:17;8.80;99.90
15937;DHT22;9163;48.818;8.976;2023-03-14T02:01:46;8.80;99.90
15937;DHT22;9163;48.818;8.976;2023-03-14T02:04:17;8.80;99.90
15937;DHT22;9163;48.818;8.976;2023-03-14T02:06:50;8.80;99.90
15937;DHT22;9163;48.818;8.976;2023-03-14T02:09:18;8.80;99.90
15937;DHT22;9163;48.818;8.976;2023-03-14T02:11:46;8.80;99.90
15937;DHT22;9163;48.818;8.976;2023-03-14T02:14:20;8.80;99.90
15937;DHT22;9163;48.818;8.976;2023-03-14T02:16:50;8.80;99.90
15937;DHT22;9163;48.818;8.976;2023-03-14T02:19:25;8.80;99.90
15937;DHT22;9163;48.818;8.976;2023-03-14T02:21:57;8.80;99.90
15937;DHT22;9163;48.818;8.976;2023-03-14T02:24:32;8.80;99.90
15937;DHT22;9163;48.818;8.976;2023-03-14T02:27:07;8.80;99.90
15937;DHT22;9163;48.818;8.976;2023-03-14T02:29:37;8.90;99.90
15937;DHT22;9163;48.818;8.976;2023-03-14T02:32:06;8.80;99.90
15937;DHT22;9163;48.818;8.976;2023-03-14T02:34:35;8.80;99.90
15937;DHT22;9163;48.818;8.976;2023-03-14T02:37:03;8.80;99.90
15937;DHT22;9163;48.818;8.976;2023-03-14T02:39:36;8.80;99.90
15937;DHT22;9163;48.818;8.976;2023-03-14T02:42:06;8.70;99.90
15937;DHT22;9163;48.818;8.976;2023-03-14T02:44:33;8.60;99.90
15937;DHT22;9163;48.818;8.976;2023-03-14T02:47:02;8.60;99.90
15937;DHT22;9163;48.818;8.976;2023-03-14T02:49:30;8.60;99.90
15937;DHT22;9163;48.818;8.976;2023-03-14T02:51:58;8.60;99.90
15937;DHT22;9163;48.818;8.976;2023-03-14T02:54:26;8.50;99.90
15937;DHT22;9163;48.818;8.976;2023-03-14T02:56:53;8.50;99.90
15937;DHT22;9163;48.818;8.976;2023-03-14T02:59:21;8.50;99.90
15937;DHT22;9163;48.818;8.976;2023-03-14T03:01:49;8.40;99.90
15937;DHT22;9163;48.818;8.976;2023-03-14T03:04:16;8.40;99.90
15937;DHT22;9163;48.818;8.976;2023-03-14T03:06:43;8.40;99.90
15937;DHT22;9163;48.818;8.976;2023-03-14T03:09:10;8.40;99.90
15937;DHT22;9163;48.818;8.976;2023-03-14T03:11:38;8.40;99.90
15937;DHT22;9163;48.818;8.976;2023-03-14T03:14:05;8.30;99.90
15937;DHT22;9163;48.818;8.976;2023-03-14T03:16:34;8.40;99.90
15937;DHT22;9163;48.818;8.976;2023-03-14T03:19:01;8.30;99.90
15937;DHT22;9163;48.818;8.976;2023-03-14T03:21:28;8.30;99.90
15937;DHT22;9163;48.818;8.976;2023-03-14T03:23:55;8.30;99.90
15937;DHT22;9163;48.818;8.976;2023-03-14T03:26:22;8.30;99.90
15937;DHT22;9163;48.818;8.976;2023-03-14T03:28:50;8.30;99.90
15937;DHT22;9163;48.818;8.976;2023-03-14T03:31:18;8.20;99.90
15937;DHT22;9163;48.818;8.976;2023-03-14T03:33:46;8.20;99.90
15937;DHT22;9163;48.818;8.976;2023-03-14T03:36:13;8.10;99.90
15937;DHT22;9163;48.818;8.976;2023-03-14T03:38:41;8.10;99.90
15937;DHT22;9163;48.818;8.976;2023-03-14T03:41:08;8.20;99.90
15937;DHT22;9163;48.818;8.976;2023-03-14T03:43:35;8.10;99.90
15937;DHT22;9163;48.818;8.976;2023-03-14T03:46:03;8.20;99.90
15937;DHT22;9163;48.818;8.976;2023-03-14T03:48:31;8.30;99.90
15937;DHT22;9163;48.818;8.976;2023-03-14T03:50:59;8.30;99.90
15937;DHT22;9163;48.818;8.976;2023-03-14T03:53:27;8.20;99.90
15937;DHT22;9163;48.818;8.976;2023-03-14T03:55:54;8.20;99.90
15937;DHT22;9163;48.818;8.976;2023-03-14T03:58:21;8.10;99.90
15937;DHT22;9163;48.818;8.976;2023-03-14T04:00:49;8.00;99.90
15937;DHT22;9163;48.818;8.976;2023-03-14T04:03:16;8.00;99.90
15937;DHT22;9163;48.818;8.976;2023-03-14T04:05:43;8.00;99.90
15937;DHT22;9163;48.818;8.976;2023-03-14T04:08:12;8.00;99.90
15937;DHT22;9163;48.818;8.976;2023-03-14T04:10:39;7.90;99.90
15937;DHT22;9163;48.818;8.976;2023-03-14T04:13:06;7.90;99.90
15937;DHT22;9163;48.818;8.976;2023-03-14T04:15:34;7.90;99.90
15937;DHT22;9163;48.818;8.976;2023-03-14T04:18:01;7.90;99.90
15937;DHT22;9163;48.818;8.976;2023-03-14T04:20:28;7.80;99.90
15937;DHT22;9163;48.818;8.976;2023-03-14T04:22:55;7.80;99.90
15937;DHT22;9163;48.818;8.976;2023-03-14T04:25:24;7.80;99.90
15937;DHT22;9163;48.818;8.976;2023-03-14T04:27:51;7.80;99.90
15937;DHT22;9163;48.818;8.976;2023-03-14T04:30:18;7.80;99.90
15937;DHT22;9163;48.818;8.976;2023-03-14T04:32:45;7.80;99.90
15937;DHT22;9163;48.818;8.976;2023-03-14T04:35:13;7.80;99.90
15937;DHT22;9163;48.818;8.976;2023-03-14T04:37:40;7.80;99.90
15937;DHT22;9163;48.818;8.976;2023-03-14T04:40:10;7.90;99.90
15937;DHT22;9163;48.818;8.976;2023-03-14T04:42:38;7.80;99.90
15937;DHT22;9163;48.818;8.976;2023-03-14T04:45:07;7.80;99.90
15937;DHT22;9163;48.818;8.976;2023-03-14T04:47:35;7.80;99.90
15937;DHT22;9163;48.818;8.976;2023-03-14T04:50:02;7.80;99.90
15937;DHT22;9163;48.818;8.976;2023-03-14T04:52:29;7.90;99.90
15937;DHT22;9163;48.818;8.976;2023-03-14T04:54:57;7.80;99.90
15937;DHT22;9163;48.818;8.976;2023-03-14T04:57:24;7.90;99.90
15937;DHT22;9163;48.818;8.976;2023-03-14T04:59:52;7.90;99.90
15937;DHT22;9163;48.818;8.976;2023-03-14T05:02:20;7.80;99.90
15937;DHT22;9163;48.818;8.976;2023-03-14T05:04:47;7.80;99.90
15937;DHT22;9163;48.818;8.976;2023-03-14T05:07:14;7.70;99.90
15937;DHT22;9163;48.818;8.976;2023-03-14T05:09:41;7.70;99.90
15937;DHT22;9163;48.818;8.976;2023-03-14T05:12:08;7.70;99.90
15937;DHT22;9163;48.818;8.976;2023-03-14T05:14:36;7.70;99.90
15937;DHT22;9163;48.818;8.976;2023-03-14T05:17:06;7.70;99.90
15937;DHT22;9163;48.818;8.976;2023-03-14T05:19:34;7.70;99.90
15937;DHT22;9163;48.818;8.976;2023-03-14T05:22:01;7.70;99.90
15937;DHT22;9163;48.818;8.976;2023-03-14T05:24:29;7.70;99.90
15937;DHT22;9163;48.818;8.976;2023-03-14T05:26:56;7.80;99.90
15937;DHT22;9163;48.818;8.976;2023-03-14T05:29:23;7.70;99.90
15937;DHT22;9163;48.818;8.976;2023-03-14T05:31:50;7.70;99.90
15937;DHT22;9163;48.818;8.976;2023-03-14T05:34:19;7.80;99.90
15937;DHT22;9163;48.818;8.976;2023-03-14T05:36:47;7.80;99.90
15937;DHT22;9163;48.818;8.976;2023-03-14T05:39:14;7.90;99.90
15937;DHT22;9163;48.818;8.976;2023-03-14T05:41:41;8.00;99.90
15937;DHT22;9163;48.818;8.976;2023-03-14T05:44:08;7.90;99.90
15937;DHT22;9163;48.818;8.976;2023-03-14T05:46:35;7.90;99.90
15937;DHT22;9163;48.818;8.976;2023-03-14T05:49:03;8.00;99.90
15937;DHT22;9163;48.818;8.976;2023-03-14T05:51:31;8.00;99.90
15937;DHT22;9163;48.818;8.976;2023-03-14T05:53:58;8.00;99.90
15937;DHT22;9163;48.818;8.976;2023-03-14T05:56:26;8.00;99.90
15937;DHT22;9163;48.818;8.976;2023-03-14T05:58:53;8.00;99.90
15937;DHT22;9163;48.818;8.976;2023-03-14T06:01:20;7.90;99.90
15937;DHT22;9163;48.818;8.976;2023-03-14T06:03:47;7.90;99.90
15937;DHT22;9163;48.818;8.976;2023-03-14T06:06:14;8.00;99.90
15937;DHT22;9163;48.818;8.976;2023-03-14T06:08:43;7.90;99.90
15937;DHT22;9163;48.818;8.976;2023-03-14T06:11:11;7.90;99.90
15937;DHT22;9163;48.818;8.976;2023-03-14T06:13:38;7.90;99.90
15937;DHT22;9163;48.818;8.976;2023-03-14T06:16:06;7.80;99.90
15937;DHT22;9163;48.818;8.976;2023-03-14T06:18:33;7.90;99.90
15937;DHT22;9163;48.818;8.976;2023-03-14T06:21:01;7.80;99.90
15937;DHT22;9163;48.818;8.976;2023-03-14T06:23:28;7.80;99.90
15937;DHT22;9163;48.818;8.976;2023-03-14T06:25:58;7.80;99.90
15937;DHT22;9163;48.818;8.976;2023-03-14T06:28:25;7.90;99.90
15937;DHT22;9163;48.818;8.976;2023-03-14T06:30:52;7.90;99.90
15937;DHT22;9163;48.818;8.976;2023-03-14T06:33:19;7.90;99.90
15937;DHT22;9163;48.818;8.976;2023-03-14T06:35:47;7.90;99.90
15937;DHT22;9163;48.818;8.976;2023-03-14T06:38:14;7.90;99.90
15937;DHT22;9163;48.818;8.976;2023-03-14T06:40:41;8.00;99.90
15937;DHT22;9163;48.818;8.976;2023-03-14T06:43:10;8.10;99.90
15937;DHT22;9163;48.818;8.976;2023-03-14T06:45:37;8.20;99.90
15937;DHT22;9163;48.818;8.976;2023-03-14T06:48:05;8.30;99.90
15937;DHT22;9163;48.818;8.976;2023-03-14T06:50:32;8.40;99.90
15937;DHT22;9163;48.818;8.976;2023-03-14T06:52:59;8.60;99.90
15937;DHT22;9163;48.818;8.976;2023-03-14T06:55:26;8.70;99.90
15937;DHT22;9163;48.818;8.976;2023-03-14T06:57:53;8.80;99.90
15937;DHT22;9163;48.818;8.976;2023-03-14T07:00:22;8.80;99.90
15937;DHT22;9163;48.818;8.976;2023-03-14T07:02:53;8.90;99.90
15937;DHT22;9163;48.818;8.976;2023-03-14T07:05:21;9.00;99.90
15937;DHT22;9163;48.818;8.976;2023-03-14T07:07:48;9.10;99.90
15937;DHT22;9163;48.818;8.976;2023-03-14T07:10:15;9.20;99.90
15937;DHT22;9163;48.818;8.976;2023-03-14T07:12:45;9.30;99.90
15937;DHT22;9163;48.818;8.976;2023-03-14T07:15:12;9.40;99.90
15937;DHT22;9163;48.818;8.976;2023-03-14T07:17:40;9.40;99.90
15937;DHT22;9163;48.818;8.976;2023-03-14T07:20:09;9.50;99.90
15937;DHT22;9163;48.818;8.976;2023-03-14T07:22:36;9.40;99.90
15937;DHT22;9163;48.818;8.976;2023-03-14T07:25:04;9.40;99.90
15937;DHT22;9163;48.818;8.976;2023-03-14T07:27:31;9.60;99.90
15937;DHT22;9163;48.818;8.976;2023-03-14T07:29:59;9.80;99.90
15937;DHT22;9163;48.818;8.976;2023-03-14T07:32:26;10.10;99.90
15937;DHT22;9163;48.818;8.976;2023-03-14T07:34:54;10.30;99.90
15937;DHT22;9163;48.818;8.976;2023-03-14T07:37:22;10.40;99.90
15937;DHT22;9163;48.818;8.976;2023-03-14T07:39:49;10.40;99.90
15937;DHT22;9163;48.818;8.976;2023-03-14T07:42:16;10.20;99.90
15937;DHT22;9163;48.818;8.976;2023-03-14T07:44:43;10.20;99.90
15937;DHT22;9163;48.818;8.976;2023-03-14T07:47:11;10.20;99.90
15937;DHT22;9163;48.818;8.976;2023-03-14T07:49:38;10.60;99.90
15937;DHT22;9163;48.818;8.976;2023-03-14T07:52:06;10.90;99.90
15937;DHT22;9163;48.818;8.976;2023-03-14T07:54:34;11.10;99.90
15937;DHT22;9163;48.818;8.976;2023-03-14T07:57:01;11.10;99.90
15937;DHT22;9163;48.818;8.976;2023-03-14T07:59:29;11.30;99.90
15937;DHT22;9163;48.818;8.976;2023-03-14T08:01:56;11.30;99.90
15937;DHT22;9163;48.818;8.976;2023-03-14T08:04:24;11.40;99.10
15937;DHT22;9163;48.818;8.976;2023-03-14T08:06:53;11.50;99.90
15937;DHT22;9163;48.818;8.976;2023-03-14T08:09:21;11.70;95.50
15937;DHT22;9163;48.818;8.976;2023-03-14T08:11:49;11.60;79.90
15937;DHT22;9163;48.818;8.976;2023-03-14T08:14:16;11.70;87.30
15937;DHT22;9163;48.818;8.976;2023-03-14T08:16:43;11.90;85.30
15937;DHT22;9163;48.818;8.976;2023-03-14T08:19:10;11.90;67.40
15937;DHT22;9163;48.818;8.976;2023-03-14T08:21:38;11.80;62.10
15937;DHT22;9163;48.818;8.976;2023-03-14T08:24:05;11.40;71.30
15937;DHT22;9163;48.818;8.976;2023-03-14T08:26:34;11.30;95.70
15937;DHT22;9163;48.818;8.976;2023-03-14T08:29:01;10.90;91.40
15937;DHT22;9163;48.818;8.976;2023-03-14T08:31:30;11.00;97.60
15937;DHT22;9163;48.818;8.976;2023-03-14T08:33:58;11.20;97.50
15937;DHT22;9163;48.818;8.976;2023-03-14T08:36:25;11.50;72.80
15937;DHT22;9163;48.818;8.976;2023-03-14T08:38:53;11.80;69.00
15937;DHT22;9163;48.818;8.976;2023-03-14T08:41:20;11.70;49.30
15937;DHT22;9163;48.818;8.976;2023-03-14T08:43:49;11.60;59.60
15937;DHT22;9163;48.818;8.976;2023-03-14T08:46:16;11.70;55.60
15937;DHT22;9163;48.818;8.976;2023-03-14T08:48:43;11.90;51.30
15937;DHT22;9163;48.818;8.976;2023-03-14T08:51:12;11.90;39.20
15937;DHT22;9163;48.818;8.976;2023-03-14T08:53:40;11.60;53.60
15937;DHT22;9163;48.818;8.976;2023-03-14T08:56:08;11.30;78.40
15937;DHT22;9163;48.818;8.976;2023-03-14T08:58:36;11.10;95.90
15937;DHT22;9163;48.818;8.976;2023-03-14T09:01:06;10.90;97.10
15937;DHT22;9163;48.818;8.976;2023-03-14T09:03:34;10.70;99.90
15937;DHT22;9163;48.818;8.976;2023-03-14T09:06:02;10.60;99.90
15937;DHT22;9163;48.818;8.976;2023-03-14T09:08:30;10.50;99.90
15937;DHT22;9163;48.818;8.976;2023-03-14T09:11:09;10.50;99.90
15937;DHT22;9163;48.818;8.976;2023-03-14T09:13:36;10.40;99.90
15937;DHT22;9163;48.818;8.976;2023-03-14T09:16:06;10.30;99.90
15937;DHT22;9163;48.818;8.976;2023-03-14T09:18:33;10.20;99.90
15937;DHT22;9163;48.818;8.976;2023-03-14T09:21:01;10.00;99.90
15937;DHT22;9163;48.818;8.976;2023-03-14T09:23:28;9.90;99.90
15937;DHT22;9163;48.818;8.976;2023-03-14T09:25:56;9.80;99.90
15937;DHT22;9163;48.818;8.976;2023-03-14T09:28:23;9.80;99.90
15937;DHT22;9163;48.818;8.976;2023-03-14T09:30:50;9.80;99.90
15937;DHT22;9163;48.818;8.976;2023-03-14T09:33:19;9.80;99.90
15937;DHT22;9163;48.818;8.976;2023-03-14T09:35:46;9.80;99.90
15937;DHT22;9163;48.818;8.976;2023-03-14T09:38:14;9.90;99.90
15937;DHT22;9163;48.818;8.976;2023-03-14T09:40:42;10.00;99.90
15937;DHT22;9163;48.818;8.976;2023-03-14T09:43:11;10.10;99.90
15937;DHT22;9163;48.818;8.976;2023-03-14T09:45:40;10.10;99.90
15937;DHT22;9163;48.818;8.976;2023-03-14T09:48:14;9.90;99.90
15937;DHT22;9163;48.818;8.976;2023-03-14T09:50:46;9.90;99.90
15937;DHT22;9163;48.818;8.976;2023-03-14T09:53:17;10.00;99.90
15937;DHT22;9163;48.818;8.976;2023-03-14T09:55:45;10.30;99.90
15937;DHT22;9163;48.818;8.976;2023-03-14T09:58:18;10.40;99.90
15937;DHT22;9163;48.818;8.976;2023-03-14T10:00:46;10.80;99.90
15937;DHT22;9163;48.818;8.976;2023-03-14T10:03:32;11.30;99.90
15937;DHT22;9163;48.818;8.976;2023-03-14T10:06:01;11.70;99.90
15937;DHT22;9163;48.818;8.976;2023-03-14T10:08:31;11.90;99.90
15937;DHT22;9163;48.818;8.976;2023-03-14T10:11:00;11.90;99.90
15937;DHT22;9163;48.818;8.976;2023-03-14T10:13:29;12.00;99.90
15937;DHT22;9163;48.818;8.976;2023-03-14T10:15:59;11.80;99.90
15937;DHT22;9163;48.818;8.976;2023-03-14T10:18:29;11.50;99.90
15937;DHT22;9163;48.818;8.976;2023-03-14T10:21:16;11.30;99.90
15937;DHT22;9163;48.818;8.976;2023-03-14T10:23:45;11.00;99.90
15937;DHT22;9163;48.818;8.976;2023-03-14T10:26:14;11.00;99.90
15937;DHT22;9163;48.818;8.976;2023-03-14T10:28:44;10.80;99.90
15937;DHT22;9163;48.818;8.976;2023-03-14T10:31:12;10.60;99.90
15937;DHT22;9163;48.818;8.976;2023-03-14T10:33:39;10.60;99.90
15937;DHT22;9163;48.818;8.976;2023-03-14T10:36:19;10.60;99.90
15937;DHT22;9163;48.818;8.976;2023-03-14T10:38:47;10.50;99.90
15937;DHT22;9163;48.818;8.976;2023-03-14T10:41:17;10.50;99.90
15937;DHT22;9163;48.818;8.976;2023-03-14T10:43:49;10.50;99.90
15937;DHT22;9163;48.818;8.976;2023-03-14T10:46:18;10.50;99.90
15937;DHT22;9163;48.818;8.976;2023-03-14T10:48:46;10.40;99.90
15937;DHT22;9163;48.818;8.976;2023-03-14T10:51:25;10.20;99.90
15937;DHT22;9163;48.818;8.976;2023-03-14T10:53:56;10.20;99.90
15937;DHT22;9163;48.818;8.976;2023-03-14T10:56:25;10.00;99.90
15937;DHT22;9163;48.818;8.976;2023-03-14T10:58:55;9.90;99.90
15937;DHT22;9163;48.818;8.976;2023-03-14T11:01:32;9.90;99.90
15937;DHT22;9163;48.818;8.976;2023-03-14T11:04:13;9.80;99.90
15937;DHT22;9163;48.818;8.976;2023-03-14T11:06:46;9.70;99.90
15937;DHT22;9163;48.818;8.976;2023-03-14T11:09:18;9.60;99.90
15937;DHT22;9163;48.818;8.976;2023-03-14T11:11:49;9.50;99.90
15937;DHT22;9163;48.818;8.976;2023-03-14T11:14:23;9.40;99.90
15937;DHT22;9163;48.818;8.976;2023-03-14T11:16:54;9.30;99.90
15937;DHT22;9163;48.818;8.976;2023-03-14T11:19:43;9.20;99.90
15937;DHT22;9163;48.818;8.976;2023-03-14T11:22:21;9.20;99.90
15937;DHT22;9163;48.818;8.976;2023-03-14T11:25:13;9.20;99.90
15937;DHT22;9163;48.818;8.976;2023-03-14T11:27:46;9.20;99.90
15937;DHT22;9163;48.818;8.976;2023-03-14T11:30:21;9.20;99.90
15937;DHT22;9163;48.818;8.976;2023-03-14T11:32:55;9.20;99.90
15937;DHT22;9163;48.818;8.976;2023-03-14T11:35:26;9.30;99.90
15937;DHT22;9163;48.818;8.976;2023-03-14T11:38:05;9.30;99.90
15937;DHT22;9163;48.818;8.976;2023-03-14T11:40:37;9.30;99.90
15937;DHT22;9163;48.818;8.976;2023-03-14T11:43:11;9.30;99.90
15937;DHT22;9163;48.818;8.976;2023-03-14T11:45:42;9.20;99.90
15937;DHT22;9163;48.818;8.976;2023-03-14T11:48:25;9.10;99.90
15937;DHT22;9163;48.818;8.976;2023-03-14T11:50:57;9.00;99.90
15937;DHT22;9163;48.818;8.976;2023-03-14T11:53:36;9.00;99.90
15937;DHT22;9163;48.818;8.976;2023-03-14T11:56:12;9.10;99.90
15937;DHT22;9163;48.818;8.976;2023-03-14T11:58:47;9.40;99.90
15937;DHT22;9163;48.818;8.976;2023-03-14T12:01:17;9.50;99.90
15937;DHT22;9163;48.818;8.976;2023-03-14T12:03:54;9.50;99.90
15937;DHT22;9163;48.818;8.976;2023-03-14T12:06:28;9.50;99.90
15937;DHT22;9163;48.818;8.976;2023-03-14T12:09:01;9.40;99.90
15937;DHT22;9163;48.818;8.976;2023-03-14T12:11:41;9.40;99.90
15937;DHT22;9163;48.818;8.976;2023-03-14T12:14:22;9.40;99.90
15937;DHT22;9163;48.818;8.976;2023-03-14T12:16:55;9.30;99.90
15937;DHT22;9163;48.818;8.976;2023-03-14T12:19:41;9.60;99.90
15937;DHT22;9163;48.818;8.976;2023-03-14T12:22:27;9.80;99.90
15937;DHT22;9163;48.818;8.976;2023-03-14T12:25:00;9.60;99.90
15937;DHT22;9163;48.818;8.976;2023-03-14T12:27:49;9.30;99.90
15937;DHT22;9163;48.818;8.976;2023-03-14T12:30:30;8.90;99.90
15937;DHT22;9163;48.818;8.976;2023-03-14T12:33:31;9.80;99.90
15937;DHT22;9163;48.818;8.976;2023-03-14T12:36:02;11.30;99.70
15937;DHT22;9163;48.818;8.976;2023-03-14T12:38:41;11.90;50.90
15937;DHT22;9163;48.818;8.976;2023-03-14T12:41:15;12.50;13.70
15937;DHT22;9163;48.818;8.976;2023-03-14T12:43:44;13.40;12.30
15937;DHT22;9163;48.818;8.976;2023-03-14T12:46:23;13.50;5.90
15937;DHT22;9163;48.818;8.976;2023-03-14T12:48:54;13.50;1.00
15937;DHT22;9163;48.818;8.976;2023-03-14T12:51:29;13.80;1.00
15937;DHT22;9163;48.818;8.976;2023-03-14T12:54:25;14.00;14.20
15937;DHT22;9163;48.818;8.976;2023-03-14T12:57:06;14.30;16.90
15937;DHT22;9163;48.818;8.976;2023-03-14T12:59:38;14.20;1.00
15937;DHT22;9163;48.818;8.976;2023-03-14T13:02:21;13.30;1.00
15937;DHT22;9163;48.818;8.976;2023-03-14T13:04:51;11.90;1.00
15937;DHT22;9163;48.818;8.976;2023-03-14T13:07:34;11.30;1.00
15937;DHT22;9163;48.818;8.976;2023-03-14T13:10:09;11.30;1.00
15937;DHT22;9163;48.818;8.976;2023-03-14T13:12:50;11.40;1.00
15937;DHT22;9163;48.818;8.976;2023-03-14T13:15:21;11.90;1.00
15937;DHT22;9163;48.818;8.976;2023-03-14T13:17:51;12.10;1.00
15937;DHT22;9163;48.818;8.976;2023-03-14T13:20:26;11.30;1.00
15937;DHT22;9163;48.818;8.976;2023-03-14T13:22:55;10.10;1.00
15937;DHT22;9163;48.818;8.976;2023-03-14T13:25:22;9.70;1.00
15937;DHT22;9163;48.818;8.976;2023-03-14T13:27:52;9.50;1.00
15937;DHT22;9163;48.818;8.976;2023-03-14T13:30:22;9.30;1.00
15937;DHT22;9163;48.818;8.976;2023-03-14T13:32:51;9.10;1.00
15937;DHT22;9163;48.818;8.976;2023-03-14T13:35:22;9.00;1.00
15937;DHT22;9163;48.818;8.976;2023-03-14T13:37:55;8.80;1.00
15937;DHT22;9163;48.818;8.976;2023-03-14T13:40:30;8.80;1.00
15937;DHT22;9163;48.818;8.976;2023-03-14T13:43:13;8.80;1.00
15937;DHT22;9163;48.818;8.976;2023-03-14T13:45:44;8.80;1.00
15937;DHT22;9163;48.818;8.976;2023-03-14T13:48:12;8.60;1.00
15937;DHT22;9163;48.818;8.976;2023-03-14T13:50:48;8.50;1.00
15937;DHT22;9163;48.818;8.976;2023-03-14T13:53:16;8.40;1.00
15937;DHT22;9163;48.818;8.976;2023-03-14T13:55:44;8.20;1.00
15937;DHT22;9163;48.818;8.976;2023-03-14T13:58:23;8.30;1.00
15937;DHT22;9163;48.818;8.976;2023-03-14T14:01:03;8.30;1.00
15937;DHT22;9163;48.818;8.976;2023-03-14T14:03:32;8.30;1.00
15937;DHT22;9163;48.818;8.976;2023-03-14T14:06:00;8.50;1.00
15937;DHT22;9163;48.818;8.976;2023-03-14T14:08:28;8.60;1.00
15937;DHT22;9163;48.818;8.976;2023-03-14T14:10:59;8.80;1.00
15937;DHT22;9163;48.818;8.976;2023-03-14T14:13:32;8.50;1.00
15937;DHT22;9163;48.818;8.976;2023-03-14T14:16:02;8.20;1.00
15937;DHT22;9163;48.818;8.976;2023-03-14T14:18:31;8.10;1.00
15937;DHT22;9163;48.818;8.976;2023-03-14T14:20:59;8.30;1.00
15937;DHT22;9163;48.818;8.976;2023-03-14T14:23:27;8.50;1.00
15937;DHT22;9163;48.818;8.976;2023-03-14T14:25:56;8.40;1.00
15937;DHT22;9163;48.818;8.976;2023-03-14T14:28:26;8.30;1.00
15937;DHT22;9163;48.818;8.976;2023-03-14T14:31:18;8.20;1.00
15937;DHT22;9163;48.818;8.976;2023-03-14T14:33:53;8.10;1.00
15937;DHT22;9163;48.818;8.976;2023-03-14T14:36:24;8.10;1.00
15937;DHT22;9163;48.818;8.976;2023-03-14T14:38:53;8.20;1.00
15937;DHT22;9163;48.818;8.976;2023-03-14T14:41:20;8.00;1.00
15937;DHT22;9163;48.818;8.976;2023-03-14T14:43:48;8.00;1.00
15937;DHT22;9163;48.818;8.976;2023-03-14T14:46:19;7.90;1.00
15937;DHT22;9163;48.818;8.976;2023-03-14T14:48:47;8.00;1.00
15937;DHT22;9163;48.818;8.976;2023-03-14T14:51:26;8.30;1.00
15937;DHT22;9163;48.818;8.976;2023-03-14T14:54:04;9.10;1.00
15937;DHT22;9163;48.818;8.976;2023-03-14T14:56:36;9.70;1.00
15937;DHT22;9163;48.818;8.976;2023-03-14T14:59:05;10.10;1.00
15937;DHT22;9163;48.818;8.976;2023-03-14T15:01:36;9.80;1.00
15937;DHT22;9163;48.818;8.976;2023-03-14T15:04:09;9.60;1.00
15937;DHT22;9163;48.818;8.976;2023-03-14T15:06:38;9.50;1.00
15937;DHT22;9163;48.818;8.976;2023-03-14T15:09:05;9.20;1.00
15937;DHT22;9163;48.818;8.976;2023-03-14T15:11:33;9.00;1.00
15937;DHT22;9163;48.818;8.976;2023-03-14T15:14:00;8.90;1.00
15937;DHT22;9163;48.818;8.976;2023-03-14T15:16:29;8.90;1.00
15937;DHT22;9163;48.818;8.976;2023-03-14T15:19:00;9.20;1.00
15937;DHT22;9163;48.818;8.976;2023-03-14T15:21:28;9.50;1.00
15937;DHT22;9163;48.818;8.976;2023-03-14T15:23:56;9.40;1.00
15937;DHT22;9163;48.818;8.976;2023-03-14T15:26:25;9.20;1.00
15937;DHT22;9163;48.818;8.976;2023-03-14T15:28:53;9.00;1.00
15937;DHT22;9163;48.818;8.976;2023-03-14T15:31:20;9.30;1.00
15937;DHT22;9163;48.818;8.976;2023-03-14T15:33:48;9.20;1.00
15937;DHT22;9163;48.818;8.976;2023-03-14T15:36:21;9.20;1.00
15937;DHT22;9163;48.818;8.976;2023-03-14T15:38:50;9.00;1.00
15937;DHT22;9163;48.818;8.976;2023-03-14T15:41:18;9.20;1.00
15937;DHT22;9163;48.818;8.976;2023-03-14T15:43:46;9.10;1.00
15937;DHT22;9163;48.818;8.976;2023-03-14T15:46:14;8.90;1.00
15937;DHT22;9163;48.818;8.976;2023-03-14T15:48:43;9.40;1.00
15937;DHT22;9163;48.818;8.976;2023-03-14T15:51:11;9.40;1.00
15937;DHT22;9163;48.818;8.976;2023-03-14T15:53:40;9.60;1.00
15937;DHT22;9163;48.818;8.976;2023-03-14T15:56:11;9.40;1.00
15937;DHT22;9163;48.818;8.976;2023-03-14T15:58:39;9.40;1.00
15937;DHT22;9163;48.818;8.976;2023-03-14T16:01:07;9.10;1.00
15937;DHT22;9163;48.818;8.976;2023-03-14T16:03:38;8.90;1.00
15937;DHT22;9163;48.818;8.976;2023-03-14T16:06:06;8.90;1.00
15937;DHT22;9163;48.818;8.976;2023-03-14T16:08:33;8.60;1.00
15937;DHT22;9163;48.818;8.976;2023-03-14T16:11:02;8.60;1.00
15937;DHT22;9163;48.818;8.976;2023-03-14T16:13:29;8.30;1.00
15937;DHT22;9163;48.818;8.976;2023-03-14T16:15:57;8.20;1.00
15937;DHT22;9163;48.818;8.976;2023-03-14T16:18:27;8.00;1.00
15937;DHT22;9163;48.818;8.976;2023-03-14T16:20:56;7.80;1.00
15937;DHT22;9163;48.818;8.976;2023-03-14T16:23:24;7.80;1.00